createdAt,value
2022-08-10T00:01:34.365Z,3.25
2022-08-10T00:04:01.504Z,2.50
2022-08-10T00:06:28.904Z,2.90
2022-08-10T00:08:55.917Z,2.72
2022-08-10T00:11:22.943Z,2.83
2022-08-10T00:13:50.364Z,3.00
2022-08-10T00:16:17.381Z,2.85
2022-08-10T00:18:44.122Z,2.97
2022-08-10T00:21:10.859Z,2.90
2022-08-10T00:23:38.250Z,2.75
2022-08-10T00:26:06.268Z,3.10
2022-08-10T00:28:33.373Z,3.15
2022-08-10T00:31:00.141Z,2.85
2022-08-10T00:33:27.017Z,2.80
2022-08-10T00:35:53.685Z,2.40
2022-08-10T00:38:20.548Z,2.53
2022-08-10T00:40:47.269Z,3.63
2022-08-10T00:43:13.966Z,3.13
2022-08-10T00:45:40.679Z,2.90
2022-08-10T00:48:07.440Z,2.80
2022-08-10T00:50:34.413Z,2.83
2022-08-10T00:53:01.608Z,2.75
2022-08-10T00:55:28.670Z,2.72
2022-08-10T00:57:55.885Z,2.92
2022-08-10T01:00:24.259Z,2.90
2022-08-10T01:02:51.134Z,2.97
2022-08-10T01:05:20.091Z,3.83
2022-08-10T01:08:19.367Z,3.30
2022-08-10T01:12:47.000Z,2.72
2022-08-10T01:14:04.823Z,3.20
2022-08-10T01:17:00.189Z,3.38
2022-08-10T01:20:01.225Z,3.35
2022-08-10T01:22:56.266Z,2.95
2022-08-10T01:26:10.375Z,2.95
2022-08-10T01:28:36.853Z,4.22
2022-08-10T01:31:07.324Z,2.95
2022-08-10T01:34:01.972Z,3.33
2022-08-10T01:36:34.755Z,2.92
2022-08-10T01:39:04.327Z,3.15
2022-08-10T01:41:46.846Z,2.85
2022-08-10T01:44:20.128Z,3.08
2022-08-10T01:46:56.806Z,2.33
2022-08-10T01:49:26.140Z,3.17
2022-08-10T01:52:00.310Z,3.30
2022-08-10T01:54:28.604Z,3.47
2022-08-10T01:56:58.121Z,3.47
2022-08-10T01:59:36.750Z,3.20
2022-08-10T02:02:06.293Z,3.10
2022-08-10T02:04:36.681Z,3.17
2022-08-10T02:07:06.223Z,3.30
2022-08-10T02:09:36.654Z,3.25
2022-08-10T02:12:08.768Z,2.90
2022-08-10T02:14:52.410Z,2.85
2022-08-10T02:18:00.902Z,3.40
2022-08-10T02:20:23.928Z,3.47
2022-08-10T02:22:58.200Z,3.60
2022-08-10T02:25:41.367Z,3.78
2022-08-10T02:28:29.763Z,3.33
2022-08-10T02:31:11.753Z,3.25
2022-08-10T02:33:56.207Z,3.95
2022-08-10T02:36:27.731Z,3.17
2022-08-10T02:39:00.715Z,3.53
2022-08-10T02:45:02.253Z,2.85
2022-08-10T02:45:25.475Z,3.80
2022-08-10T02:48:00.149Z,3.45
2022-08-10T02:50:36.393Z,3.50
2022-08-10T02:53:51.761Z,3.47
2022-08-10T02:56:08.040Z,2.95
2022-08-10T02:58:47.827Z,3.17
2022-08-10T03:01:20.160Z,3.30
2022-08-10T03:04:55.418Z,3.40
2022-08-10T03:07:15.041Z,3.00
2022-08-10T03:09:43.111Z,3.20
2022-08-10T03:12:36.326Z,3.78
2022-08-10T03:15:01.442Z,3.03
2022-08-10T03:17:29.643Z,4.13
2022-08-10T03:20:35.560Z,3.45
2022-08-10T03:22:46.189Z,3.15
2022-08-10T03:25:13.818Z,3.03
2022-08-10T03:27:44.540Z,4.22
2022-08-10T03:30:30.012Z,3.28
2022-08-10T03:33:00.286Z,2.90
2022-08-10T03:35:27.952Z,3.63
2022-08-10T03:37:59.887Z,4.00
2022-08-10T03:40:45.798Z,3.88
2022-08-10T03:43:20.275Z,3.83
2022-08-10T03:45:54.823Z,3.53
2022-08-10T03:48:24.697Z,3.40
2022-08-10T03:51:01.230Z,3.00
2022-08-10T03:54:04.638Z,3.60
2022-08-10T03:56:29.197Z,3.25
2022-08-10T03:58:58.283Z,3.30
2022-08-10T04:02:46.665Z,2.97
2022-08-10T04:04:16.515Z,3.38
2022-08-10T04:06:46.027Z,3.58
2022-08-10T04:09:12.704Z,3.75
2022-08-10T04:11:40.766Z,3.85
2022-08-10T04:14:07.943Z,3.78
2022-08-10T04:16:54.799Z,3.03
2022-08-10T04:19:22.987Z,3.72
2022-08-10T04:22:02.667Z,3.28
2022-08-10T04:24:33.914Z,2.90
2022-08-10T04:27:01.845Z,3.42
2022-08-10T04:29:29.188Z,3.60
2022-08-10T04:31:55.913Z,3.55
2022-08-10T04:34:24.271Z,3.10
2022-08-10T04:36:53.299Z,3.55
2022-08-10T04:39:21.785Z,3.65
2022-08-10T04:41:48.706Z,3.17
2022-08-10T04:44:15.907Z,3.15
2022-08-10T04:46:58.024Z,3.35
2022-08-10T04:49:55.728Z,3.58
2022-08-10T04:52:12.139Z,3.08
2022-08-10T04:54:39.109Z,3.60
2022-08-10T04:57:06.402Z,3.78
2022-08-10T04:59:33.261Z,3.10
2022-08-10T05:02:22.066Z,3.67
2022-08-10T05:04:46.673Z,3.30
2022-08-10T05:07:17.203Z,3.88
2022-08-10T05:10:01.557Z,3.45
2022-08-10T05:12:32.770Z,3.80
2022-08-10T05:15:03.041Z,3.05
2022-08-10T05:17:29.795Z,3.72
2022-08-10T05:20:02.999Z,3.38
2022-08-10T05:22:32.494Z,3.42
2022-08-10T05:24:59.174Z,3.08
2022-08-10T05:27:25.840Z,3.03
2022-08-10T05:30:02.060Z,3.88
2022-08-10T05:32:56.435Z,3.05
2022-08-10T05:35:21.197Z,3.78
2022-08-10T05:38:13.490Z,2.88
2022-08-10T05:40:39.209Z,3.72
2022-08-10T05:43:06.194Z,3.03
2022-08-10T05:45:32.885Z,3.35
2022-08-10T05:48:58.223Z,3.53
2022-08-10T05:50:46.777Z,3.13
2022-08-10T05:54:03.063Z,2.90
2022-08-10T05:56:01.895Z,3.05
2022-08-10T05:58:28.555Z,3.28
2022-08-10T06:00:57.137Z,3.50
2022-08-10T06:03:29.621Z,3.28
2022-08-10T06:05:58.212Z,2.90
2022-08-10T06:08:31.282Z,2.63
2022-08-10T06:12:28.209Z,2.87
2022-08-10T06:14:13.626Z,3.10
2022-08-10T06:16:44.339Z,2.63
2022-08-10T06:19:15.072Z,3.25
2022-08-10T06:22:00.344Z,3.15
2022-08-10T06:24:30.913Z,3.00
2022-08-10T06:27:01.193Z,3.25
2022-08-10T06:29:31.947Z,2.50
2022-08-10T06:32:00.939Z,2.95
2022-08-10T06:34:35.353Z,2.97
2022-08-10T06:37:04.355Z,2.50
2022-08-10T06:39:34.462Z,3.22
2022-08-10T06:42:16.573Z,2.42
2022-08-10T06:45:04.649Z,2.80
2022-08-10T06:47:48.948Z,2.63
2022-08-10T06:53:18.894Z,2.55
2022-08-10T06:55:56.545Z,2.60
2022-08-10T06:58:29.059Z,3.10
2022-08-10T07:00:56.763Z,2.50
2022-08-10T07:03:30.587Z,2.58
2022-08-10T07:05:59.711Z,2.85
2022-08-10T07:08:31.319Z,2.75
2022-08-10T07:10:58.372Z,2.75
2022-08-10T07:14:15.696Z,2.50
2022-08-10T07:16:14.567Z,2.45
2022-08-10T07:18:43.068Z,2.33
2022-08-10T07:21:10.349Z,2.83
2022-08-10T07:23:57.273Z,2.60
2022-08-10T07:26:27.116Z,2.80
2022-08-10T07:28:54.898Z,2.50
2022-08-10T07:31:31.080Z,2.10
2022-08-10T07:34:09.622Z,2.13
2022-08-10T07:36:37.271Z,2.10
2022-08-10T07:39:05.675Z,2.20
2022-08-10T07:41:33.879Z,2.50
2022-08-10T07:44:04.198Z,2.38
2022-08-10T07:46:31.797Z,2.50
2022-08-10T07:49:02.631Z,2.70
2022-08-10T07:51:46.955Z,2.00
2022-08-10T07:54:23.432Z,2.22
2022-08-10T07:56:52.258Z,2.42
2022-08-10T07:59:22.193Z,2.50
2022-08-10T08:01:51.367Z,1.80
2022-08-10T08:04:22.664Z,2.47
2022-08-10T08:06:50.397Z,2.47
2022-08-10T08:09:18.984Z,2.17
2022-08-10T08:11:49.556Z,2.60
2022-08-10T08:14:17.127Z,2.20
2022-08-10T08:16:47.338Z,2.38
2022-08-10T08:19:37.831Z,2.15
2022-08-10T08:24:09.125Z,2.17
2022-08-10T08:24:52.190Z,1.88
2022-08-10T08:27:20.034Z,1.83
2022-08-10T08:29:50.071Z,2.03
2022-08-10T08:32:18.722Z,2.03
2022-08-10T08:34:46.838Z,2.28
2022-08-10T08:38:27.306Z,1.92
2022-08-10T08:40:05.188Z,2.65
2022-08-10T08:42:44.499Z,2.50
2022-08-10T08:45:31.496Z,2.40
2022-08-10T08:48:17.305Z,2.05
2022-08-10T08:51:03.284Z,1.77
2022-08-10T08:54:02.284Z,1.85
2022-08-10T08:56:50.294Z,2.13
2022-08-10T08:59:36.365Z,1.75
2022-08-10T09:02:24.131Z,1.70
2022-08-10T09:05:05.070Z,2.08
2022-08-10T09:08:00.076Z,1.70
2022-08-10T09:10:46.967Z,1.67
2022-08-10T09:13:33.678Z,1.70
2022-08-10T09:16:03.506Z,1.90
2022-08-10T09:18:52.072Z,1.95
2022-08-10T09:21:34.088Z,1.95
2022-08-10T09:24:20.202Z,2.00
2022-08-10T09:26:51.408Z,1.80
2022-08-10T09:29:28.784Z,1.80
2022-08-10T09:36:20.040Z,2.05
2022-08-10T09:36:22.794Z,1.27
2022-08-10T09:38:01.139Z,2.28
2022-08-10T09:41:01.101Z,1.80
2022-08-10T09:43:41.516Z,1.98
2022-08-10T09:46:14.402Z,1.95
2022-08-10T09:48:48.058Z,1.80
2022-08-10T09:51:46.328Z,1.65
2022-08-10T09:54:32.717Z,1.67
2022-08-10T09:57:43.966Z,2.05
2022-08-10T10:00:02.856Z,2.38
2022-08-10T10:02:52.488Z,1.70
2022-08-10T10:05:25.853Z,1.63
2022-08-10T10:08:01.353Z,1.90
2022-08-10T10:10:34.134Z,1.85
2022-08-10T10:13:12.746Z,1.85
2022-08-10T10:16:00.158Z,1.83
2022-08-10T10:18:40.328Z,1.55
2022-08-10T10:21:54.291Z,1.52
2022-08-10T10:24:23.418Z,1.38
2022-08-10T10:26:50.448Z,2.50
2022-08-10T10:29:57.242Z,1.85
2022-08-10T10:32:37.073Z,1.23
2022-08-10T10:35:10.240Z,1.70
2022-08-10T10:38:02.235Z,1.63
2022-08-10T10:40:27.848Z,1.50
2022-08-10T10:43:04.832Z,2.28
2022-08-10T10:45:50.006Z,1.92
2022-08-10T10:48:24.248Z,1.65
2022-08-10T10:51:08.413Z,1.35
2022-08-10T10:53:37.558Z,1.67
2022-08-10T10:56:15.939Z,2.22
2022-08-10T10:59:33.471Z,1.67
2022-08-10T11:02:06.494Z,1.55
2022-08-10T11:04:58.982Z,1.73
2022-08-10T11:07:40.173Z,2.10
2022-08-10T11:10:31.784Z,1.60
2022-08-10T11:14:26.909Z,1.70
2022-08-10T11:15:59.909Z,1.50
2022-08-10T11:18:52.082Z,1.30
2022-08-10T11:21:31.434Z,1.70
2022-08-10T11:24:47.893Z,1.75
2022-08-10T11:27:01.071Z,1.60
2022-08-10T11:29:43.915Z,1.98
2022-08-10T11:32:37.829Z,1.38
2022-08-10T11:35:19.685Z,1.98
2022-08-10T11:38:30.962Z,1.65
2022-08-10T11:42:08.736Z,2.43
2022-08-10T11:44:29.623Z,1.50
2022-08-10T11:47:04.714Z,2.03
2022-08-10T11:49:37.617Z,1.67
2022-08-10T11:52:10.609Z,1.75
2022-08-10T11:54:50.741Z,1.73
2022-08-10T11:57:18.444Z,1.83
2022-08-10T12:00:11.142Z,1.88
2022-08-10T12:02:42.053Z,2.30
2022-08-10T12:05:15.416Z,1.40
2022-08-10T12:10:02.982Z,1.65
2022-08-10T12:10:41.058Z,1.60
2022-08-10T12:13:21.157Z,1.60
2022-08-10T12:16:07.718Z,1.75
2022-08-10T12:18:42.844Z,1.38
2022-08-10T12:21:21.671Z,1.60
2022-08-10T12:24:02.632Z,1.00
2022-08-10T12:26:56.263Z,1.20
2022-08-10T12:29:53.813Z,1.95
2022-08-10T12:32:39.419Z,1.45
2022-08-10T12:35:26.558Z,1.63
2022-08-10T12:38:13.382Z,1.88
2022-08-10T12:40:47.232Z,1.60
2022-08-10T12:46:35.060Z,1.83
2022-08-10T12:49:23.086Z,1.65
2022-08-10T12:52:15.665Z,1.88
2022-08-10T12:54:43.618Z,1.50
2022-08-10T12:57:13.076Z,1.90
2022-08-10T12:59:53.135Z,1.27
2022-08-10T13:02:36.208Z,1.60
2022-08-10T13:05:07.195Z,1.42
2022-08-10T13:08:04.075Z,1.30
2022-08-10T13:10:23.488Z,1.23
2022-08-10T13:12:54.448Z,1.38
2022-08-10T13:15:50.372Z,1.35
2022-08-10T13:18:26.079Z,1.42
2022-08-10T13:20:55.146Z,1.40
2022-08-10T13:23:26.696Z,1.65
2022-08-10T13:25:57.718Z,1.30
2022-08-10T13:28:43.336Z,1.67
2022-08-10T13:31:17.758Z,1.30
2022-08-10T13:34:39.593Z,1.70
2022-08-10T13:36:38.640Z,1.63
2022-08-10T13:39:07.024Z,1.58
2022-08-10T13:41:42.332Z,1.48
2022-08-10T13:44:12.699Z,1.33
2022-08-10T13:46:42.179Z,1.55
2022-08-10T13:49:11.114Z,1.48
2022-08-10T13:51:54.070Z,1.52
2022-08-10T13:54:28.049Z,1.38
2022-08-10T13:56:56.665Z,1.80
2022-08-10T14:00:33.970Z,1.30
2022-08-10T14:02:38.000Z,1.17
2022-08-10T14:05:07.045Z,1.58
2022-08-10T14:07:38.250Z,1.58
2022-08-10T14:11:08.379Z,1.38
2022-08-10T14:13:09.941Z,1.90
2022-08-10T14:15:39.019Z,1.60
2022-08-10T14:18:08.693Z,1.58
2022-08-10T14:20:37.282Z,1.65
2022-08-10T14:23:15.318Z,1.52
2022-08-10T14:26:08.517Z,1.63
2022-08-10T14:28:48.800Z,1.65
2022-08-10T14:31:22.477Z,1.48
2022-08-10T14:33:55.430Z,1.85
2022-08-10T14:36:48.094Z,1.30
2022-08-10T14:39:28.264Z,1.40
2022-08-10T14:42:04.286Z,1.70
2022-08-10T14:44:45.056Z,1.25
2022-08-10T14:47:52.840Z,1.70
2022-08-10T14:50:02.053Z,1.50
2022-08-10T14:52:30.866Z,1.38
2022-08-10T14:55:04.522Z,1.73
2022-08-10T14:58:19.318Z,1.63
2022-08-10T15:00:31.487Z,1.30
2022-08-10T15:03:16.057Z,1.52
2022-08-10T15:05:54.313Z,1.77
2022-08-10T15:10:57.553Z,1.67
2022-08-10T15:13:34.274Z,1.67
2022-08-10T15:16:13.548Z,1.23
2022-08-10T15:18:57.965Z,1.83
2022-08-10T15:21:42.195Z,1.88
2022-08-10T15:24:36.651Z,1.60
2022-08-10T15:27:08.660Z,1.35
2022-08-10T15:29:57.745Z,1.42
2022-08-10T15:32:49.364Z,1.48
2022-08-10T15:35:36.901Z,1.42
2022-08-10T15:38:06.886Z,1.40
2022-08-10T15:40:49.660Z,1.58
2022-08-10T15:43:20.708Z,1.42
2022-08-10T15:46:20.410Z,1.42
2022-08-10T15:48:55.244Z,1.60
2022-08-10T15:51:54.361Z,1.80
2022-08-10T15:54:33.233Z,1.52
2022-08-10T15:57:06.018Z,1.58
2022-08-10T15:59:41.561Z,1.65
2022-08-10T16:02:17.692Z,1.38
2022-08-10T16:04:57.938Z,1.58
2022-08-10T16:07:57.506Z,1.85
2022-08-10T16:10:30.827Z,1.50
2022-08-10T16:13:01.185Z,1.63
2022-08-10T16:15:30.226Z,1.58
2022-08-10T16:18:02.932Z,1.58
2022-08-10T16:20:55.072Z,2.00
2022-08-10T16:23:35.414Z,1.60
2022-08-10T16:26:14.985Z,1.23
2022-08-10T16:28:54.665Z,1.40
2022-08-10T16:31:24.226Z,1.80
2022-08-10T16:33:57.798Z,1.20
2022-08-10T16:39:07.932Z,1.40
2022-08-10T16:42:04.369Z,2.13
2022-08-10T16:44:51.073Z,1.70
2022-08-10T16:47:26.708Z,1.55
2022-08-10T16:49:58.077Z,1.35
2022-08-10T16:52:29.267Z,1.80
2022-08-10T16:55:17.204Z,1.40
2022-08-10T16:57:51.221Z,1.90
2022-08-10T17:00:22.404Z,1.38
2022-08-10T17:04:05.481Z,1.50
2022-08-10T17:06:11.489Z,2.00
2022-08-10T17:08:48.355Z,1.83
2022-08-10T17:11:18.474Z,1.35
2022-08-10T17:13:45.687Z,1.48
2022-08-10T17:16:14.356Z,1.52
2022-08-10T17:18:45.131Z,1.90
2022-08-10T17:21:25.605Z,1.65
2022-08-10T17:23:54.687Z,1.30
2022-08-10T17:26:35.570Z,1.52
2022-08-10T17:29:57.816Z,1.50
2022-08-10T17:32:20.589Z,1.58
2022-08-10T17:34:52.775Z,1.58
2022-08-10T17:37:22.305Z,1.45
2022-08-10T17:40:05.629Z,1.67
2022-08-10T17:42:35.079Z,1.45
2022-08-10T17:45:04.166Z,1.90
2022-08-10T17:47:32.470Z,1.67
2022-08-10T17:50:00.741Z,1.50
2022-08-10T17:52:33.014Z,1.85
2022-08-10T17:55:09.842Z,1.85
2022-08-10T17:57:39.304Z,1.33
2022-08-10T18:00:14.691Z,1.63
2022-08-10T18:02:46.276Z,1.90
2022-08-10T18:05:14.548Z,1.90
2022-08-10T18:07:47.685Z,1.77
2022-08-10T18:10:18.235Z,1.80
2022-08-10T18:12:48.791Z,1.92
2022-08-10T18:15:23.233Z,1.90
2022-08-10T18:17:59.126Z,1.85
2022-08-10T18:20:35.592Z,1.95
2022-08-10T18:23:03.516Z,1.63
2022-08-10T18:25:33.417Z,1.80
2022-08-10T18:28:05.480Z,2.47
2022-08-10T18:30:45.133Z,1.90
2022-08-10T18:33:14.060Z,1.92
2022-08-10T18:35:43.645Z,1.80
2022-08-10T18:38:12.967Z,1.65
2022-08-10T18:40:43.656Z,2.20
2022-08-10T18:44:06.977Z,2.13
2022-08-10T18:46:01.154Z,2.22
2022-08-10T18:48:38.597Z,2.17
2022-08-10T18:51:06.629Z,2.45
2022-08-10T18:53:48.138Z,2.28
2022-08-10T18:56:20.947Z,2.20
2022-08-10T18:58:50.713Z,2.10
2022-08-10T19:01:32.319Z,2.13
2022-08-10T19:04:21.163Z,2.47
2022-08-10T19:07:02.847Z,2.30
2022-08-10T19:09:53.518Z,2.60
2022-08-10T19:12:30.362Z,2.28
2022-08-10T19:15:18.197Z,2.33
2022-08-10T19:18:11.471Z,2.00
2022-08-10T19:20:46.917Z,2.00
2022-08-10T19:23:51.102Z,2.30
2022-08-10T19:26:46.435Z,2.20
2022-08-10T19:30:08.712Z,2.30
2022-08-10T19:32:27.303Z,2.05
2022-08-10T19:35:08.583Z,2.50
2022-08-10T19:38:00.506Z,2.65
2022-08-10T19:40:49.385Z,2.25
2022-08-10T19:44:00.230Z,2.17
2022-08-10T19:46:42.305Z,2.00
2022-08-10T19:49:39.789Z,2.00
2022-08-10T19:52:30.194Z,2.22
2022-08-10T19:55:27.634Z,2.42
2022-08-10T19:58:18.965Z,2.55
2022-08-10T20:01:01.638Z,2.78
2022-08-10T20:03:41.962Z,2.50
2022-08-10T20:06:31.529Z,2.47
2022-08-10T20:09:08.618Z,2.40
2022-08-10T20:11:45.465Z,2.50
2022-08-10T20:14:34.432Z,2.17
2022-08-10T20:17:05.040Z,2.10
2022-08-10T20:19:52.460Z,2.13
2022-08-10T20:22:28.682Z,2.30
2022-08-10T20:25:20.838Z,2.85
2022-08-10T20:28:05.091Z,2.47
2022-08-10T20:33:06.524Z,2.50
2022-08-10T20:36:08.670Z,2.78
2022-08-10T20:38:50.261Z,2.30
2022-08-10T20:42:00.475Z,2.40
2022-08-10T20:44:50.571Z,2.15
2022-08-10T20:47:30.867Z,2.38
2022-08-10T20:50:30.688Z,2.90
2022-08-10T20:53:02.297Z,2.33
2022-08-10T20:55:46.741Z,2.42
2022-08-10T20:58:41.900Z,2.60
2022-08-10T21:01:17.021Z,2.35
2022-08-10T21:04:07.682Z,2.38
2022-08-10T21:07:28.456Z,2.45
2022-08-10T21:10:21.591Z,2.55
2022-08-10T21:13:06.990Z,2.47
2022-08-10T21:15:55.838Z,2.47
2022-08-10T21:18:44.346Z,2.42
2022-08-10T21:22:05.474Z,2.63
2022-08-10T21:25:08.076Z,2.10
2022-08-10T21:27:49.973Z,2.65
2022-08-10T21:30:51.776Z,2.40
2022-08-10T21:33:53.326Z,2.67
2022-08-10T21:36:34.939Z,2.60
2022-08-10T21:39:42.779Z,2.40
2022-08-10T21:42:47.261Z,2.55
2022-08-10T21:45:58.104Z,2.40
2022-08-10T21:48:57.854Z,2.47
2022-08-10T21:52:01.657Z,2.60
2022-08-10T21:54:58.231Z,2.58
2022-08-10T21:57:59.074Z,2.60
2022-08-10T22:00:44.952Z,2.58
2022-08-10T22:03:39.686Z,2.72
2022-08-10T22:06:28.044Z,2.70
2022-08-10T22:09:25.962Z,2.42
2022-08-10T22:12:25.070Z,2.58
2022-08-10T22:15:42.536Z,2.95
2022-08-10T22:18:35.715Z,3.33
2022-08-10T22:21:49.423Z,2.63
2022-08-10T22:24:52.485Z,2.72
2022-08-10T22:27:54.501Z,2.75
2022-08-10T22:31:14.977Z,3.20
2022-08-10T22:33:54.200Z,2.78
2022-08-10T22:37:14.755Z,2.63
2022-08-10T22:40:35.584Z,2.78
2022-08-10T22:43:35.815Z,2.83
2022-08-10T22:46:28.714Z,2.75
2022-08-10T22:49:01.718Z,2.38
2022-08-10T22:51:31.716Z,2.80
2022-08-10T22:54:30.374Z,2.45
2022-08-10T22:57:21.315Z,2.95
2022-08-10T22:59:49.788Z,2.60
2022-08-10T23:02:33.540Z,2.92
2022-08-10T23:05:07.041Z,3.00
2022-08-10T23:07:41.178Z,2.85
2022-08-10T23:10:11.846Z,2.85
2022-08-10T23:12:50.147Z,2.97
2022-08-10T23:15:48.596Z,3.10
2022-08-10T23:18:45.066Z,2.60
2022-08-10T23:21:15.229Z,2.83
2022-08-10T23:23:44.547Z,3.05
2022-08-10T23:26:15.104Z,3.00
2022-08-10T23:28:58.853Z,2.80
2022-08-10T23:31:58.368Z,2.90
2022-08-10T23:34:25.110Z,3.05
2022-08-10T23:36:54.144Z,2.97
2022-08-10T23:39:29.750Z,2.85
2022-08-10T23:42:07.922Z,2.88
2022-08-10T23:44:43.424Z,3.22
2022-08-10T23:47:14.242Z,2.78
2022-08-10T23:49:43.088Z,2.75
2022-08-10T23:52:18.377Z,2.92
2022-08-10T23:54:49.736Z,3.05
2022-08-10T23:57:19.900Z,3.20
2022-08-10T23:59:59.785Z,3.00
